createdAt,value
2022-11-07T00:00:50.031Z,9.54
2022-11-07T00:03:17.304Z,9.53
2022-11-07T00:05:44.130Z,9.54
2022-11-07T00:08:10.736Z,9.57
2022-11-07T00:10:37.367Z,9.51
2022-11-07T00:13:04.014Z,9.53
2022-11-07T00:15:30.569Z,9.52
2022-11-07T00:17:58.402Z,9.53
2022-11-07T00:20:25.050Z,9.54
2022-11-07T00:22:51.613Z,9.53
2022-11-07T00:25:18.198Z,9.55
2022-11-07T00:27:44.850Z,9.58
2022-11-07T00:30:12.502Z,9.57
2022-11-07T00:32:39.089Z,9.59
2022-11-07T00:35:06.054Z,9.58
2022-11-07T00:37:33.182Z,9.58
2022-11-07T00:39:59.800Z,9.59
2022-11-07T00:42:26.369Z,9.59
2022-11-07T00:44:52.980Z,9.60
2022-11-07T00:47:19.595Z,9.60
2022-11-07T00:49:46.413Z,9.61
2022-11-07T00:52:12.960Z,9.60
2022-11-07T00:54:39.531Z,9.61
2022-11-07T00:57:06.113Z,9.61
2022-11-07T00:59:32.728Z,9.61
2022-11-07T01:01:59.492Z,9.62
2022-11-07T01:04:44.618Z,9.64
2022-11-07T01:07:11.283Z,9.65
2022-11-07T01:09:38.055Z,9.63
2022-11-07T01:12:05.899Z,9.63
2022-11-07T01:14:32.550Z,9.61
2022-11-07T01:16:59.148Z,9.67
2022-11-07T01:19:25.727Z,9.66
2022-11-07T01:21:52.341Z,9.63
2022-11-07T01:24:19.146Z,9.67
2022-11-07T01:26:49.114Z,9.67
2022-11-07T01:29:17.498Z,9.70
2022-11-07T01:31:44.201Z,9.69
2022-11-07T01:34:11.000Z,9.68
2022-11-07T01:36:37.654Z,9.66
2022-11-07T01:39:04.913Z,9.65
2022-11-07T01:41:34.620Z,9.63
2022-11-07T01:44:07.121Z,9.56
2022-11-07T01:46:37.462Z,9.56
2022-11-07T01:49:10.399Z,9.58
2022-11-07T01:51:43.952Z,9.58
2022-11-07T01:54:13.322Z,9.57
2022-11-07T01:56:42.998Z,9.57
2022-11-07T01:59:12.047Z,9.59
2022-11-07T02:01:38.890Z,9.57
2022-11-07T02:04:06.460Z,9.56
2022-11-07T02:06:54.504Z,9.57
2022-11-07T02:09:21.444Z,9.51
2022-11-07T02:11:48.349Z,9.51
2022-11-07T02:14:16.614Z,9.50
2022-11-07T02:16:43.629Z,9.50
2022-11-07T02:19:38.156Z,9.56
2022-11-07T02:22:32.162Z,9.58
2022-11-07T02:25:01.342Z,9.57
2022-11-07T02:27:31.073Z,9.61
2022-11-07T02:30:25.932Z,9.60
2022-11-07T02:32:53.447Z,9.56
2022-11-07T02:35:35.019Z,9.57
2022-11-07T02:38:05.657Z,9.51
2022-11-07T02:40:32.855Z,9.50
2022-11-07T02:43:00.272Z,9.50
2022-11-07T02:45:29.828Z,9.53
2022-11-07T02:47:56.438Z,9.50
2022-11-07T02:50:23.117Z,9.53
2022-11-07T02:52:49.763Z,9.51
2022-11-07T02:55:17.062Z,9.51
2022-11-07T02:57:43.715Z,9.52
2022-11-07T03:00:12.651Z,9.53
2022-11-07T03:02:39.527Z,9.53
2022-11-07T03:05:06.675Z,9.54
2022-11-07T03:07:33.693Z,9.51
2022-11-07T03:10:00.251Z,9.56
2022-11-07T03:12:26.859Z,9.53
2022-11-07T03:14:53.495Z,9.57
2022-11-07T03:17:20.126Z,9.63
2022-11-07T03:19:46.764Z,9.65
2022-11-07T03:22:13.494Z,9.67
2022-11-07T03:24:40.106Z,9.70
2022-11-07T03:27:06.740Z,9.72
2022-11-07T03:29:33.390Z,9.73
2022-11-07T03:31:59.990Z,9.75
2022-11-07T03:34:26.532Z,9.75
2022-11-07T03:36:53.189Z,9.77
2022-11-07T03:39:25.469Z,9.75
2022-11-07T03:41:52.493Z,9.73
2022-11-07T03:44:19.138Z,9.71
2022-11-07T03:46:45.827Z,9.73
2022-11-07T03:49:12.405Z,9.76
2022-11-07T03:51:39.013Z,9.76
2022-11-07T03:54:05.645Z,9.79
2022-11-07T03:56:32.224Z,9.81
2022-11-07T03:58:58.840Z,9.83
2022-11-07T04:01:25.603Z,9.84
2022-11-07T04:03:56.098Z,9.85
2022-11-07T04:06:23.516Z,9.83
2022-11-07T04:08:50.215Z,9.86
2022-11-07T04:11:35.367Z,9.88
2022-11-07T04:14:20.443Z,9.90
2022-11-07T04:17:05.942Z,9.90
2022-11-07T04:19:32.524Z,9.90
2022-11-07T04:21:59.057Z,9.93
2022-11-07T04:24:25.613Z,9.94
2022-11-07T04:27:10.902Z,9.96
2022-11-07T04:29:37.433Z,9.95
2022-11-07T04:32:04.151Z,9.97
2022-11-07T04:34:31.029Z,9.95
2022-11-07T04:36:57.649Z,9.96
2022-11-07T04:39:24.224Z,9.99
2022-11-07T04:41:50.826Z,10.01
2022-11-07T04:44:17.364Z,10.00
2022-11-07T04:46:43.997Z,10.00
2022-11-07T04:49:10.609Z,9.99
2022-11-07T04:51:42.293Z,10.04
2022-11-07T04:54:15.589Z,10.01
2022-11-07T04:56:42.293Z,9.98
2022-11-07T04:59:09.172Z,9.99
2022-11-07T05:01:35.897Z,9.99
2022-11-07T05:04:02.561Z,9.99
2022-11-07T05:06:29.632Z,9.99
2022-11-07T05:08:56.298Z,9.98
2022-11-07T05:11:22.874Z,9.99
2022-11-07T05:13:49.410Z,10.00
2022-11-07T05:16:19.751Z,10.04
2022-11-07T05:18:46.436Z,10.02
2022-11-07T05:21:13.119Z,10.02
2022-11-07T05:23:39.753Z,10.04
2022-11-07T05:26:06.370Z,10.05
2022-11-07T05:28:38.627Z,10.08
2022-11-07T05:31:06.339Z,10.08
2022-11-07T05:33:33.360Z,10.06
2022-11-07T05:36:17.814Z,10.09
2022-11-07T05:38:47.856Z,10.09
2022-11-07T05:41:16.191Z,10.11
2022-11-07T05:43:43.602Z,10.10
2022-11-07T05:46:10.654Z,10.10
2022-11-07T05:48:37.639Z,10.12
2022-11-07T05:51:05.676Z,10.13
2022-11-07T05:53:32.754Z,10.13
2022-11-07T05:55:59.548Z,10.14
2022-11-07T05:58:26.268Z,10.16
2022-11-07T06:00:52.870Z,10.17
2022-11-07T06:03:22.780Z,10.17
2022-11-07T06:05:49.479Z,10.18
2022-11-07T06:08:16.178Z,10.19
2022-11-07T06:10:44.017Z,10.19
2022-11-07T06:13:14.090Z,10.22
2022-11-07T06:15:41.446Z,10.23
2022-11-07T06:18:13.575Z,10.28
2022-11-07T06:20:40.426Z,10.29
2022-11-07T06:23:07.255Z,10.32
2022-11-07T06:25:35.288Z,10.33
2022-11-07T06:28:10.909Z,10.35
2022-11-07T06:30:37.776Z,10.34
2022-11-07T06:33:11.291Z,10.36
2022-11-07T06:35:38.159Z,10.39
2022-11-07T06:38:06.932Z,10.43
2022-11-07T06:40:33.595Z,10.44
2022-11-07T06:43:15.569Z,10.49
2022-11-07T06:45:43.755Z,10.49
2022-11-07T06:48:10.862Z,10.51
2022-11-07T06:50:38.230Z,10.52
2022-11-07T06:53:10.754Z,10.53
2022-11-07T06:55:38.603Z,10.54
2022-11-07T06:58:05.759Z,10.55
2022-11-07T07:00:34.715Z,10.57
2022-11-07T07:03:01.659Z,10.58
2022-11-07T07:05:28.358Z,10.62
2022-11-07T07:07:55.848Z,10.64
2022-11-07T07:10:24.864Z,10.66
2022-11-07T07:12:52.300Z,10.67
2022-11-07T07:15:19.069Z,10.68
2022-11-07T07:17:45.675Z,10.70
2022-11-07T07:20:12.411Z,10.73
2022-11-07T07:22:39.112Z,10.74
2022-11-07T07:25:06.224Z,10.77
2022-11-07T07:27:32.842Z,10.75
2022-11-07T07:29:59.470Z,10.75
2022-11-07T07:32:26.069Z,10.78
2022-11-07T07:34:52.812Z,10.79
2022-11-07T07:37:19.464Z,10.81
2022-11-07T07:39:46.234Z,10.86
2022-11-07T07:42:12.909Z,10.86
2022-11-07T07:44:39.614Z,10.86
2022-11-07T07:47:11.063Z,10.91
2022-11-07T07:49:38.716Z,10.88
2022-11-07T07:52:05.989Z,10.93
2022-11-07T07:54:32.612Z,10.88
2022-11-07T07:56:59.263Z,10.89
2022-11-07T07:59:26.022Z,10.93
2022-11-07T08:01:56.842Z,10.95
2022-11-07T08:04:24.159Z,11.00
2022-11-07T08:06:50.826Z,10.99
2022-11-07T08:09:17.467Z,11.01
2022-11-07T08:11:44.068Z,11.01
2022-11-07T08:14:11.635Z,11.02
2022-11-07T08:16:38.418Z,11.06
2022-11-07T08:19:05.204Z,11.06
2022-11-07T08:21:31.981Z,11.02
2022-11-07T08:23:58.686Z,11.03
2022-11-07T08:26:26.221Z,11.05
2022-11-07T08:28:54.162Z,11.05
2022-11-07T08:31:21.123Z,11.10
2022-11-07T08:33:47.774Z,11.06
2022-11-07T08:36:14.723Z,11.10
2022-11-07T08:38:41.364Z,11.14
2022-11-07T08:41:08.206Z,11.19
2022-11-07T08:43:35.166Z,11.25
2022-11-07T08:46:01.912Z,11.30
2022-11-07T08:48:28.647Z,11.30
2022-11-07T08:50:56.993Z,11.25
2022-11-07T08:53:25.670Z,11.24
2022-11-07T08:55:52.504Z,11.25
2022-11-07T08:58:19.832Z,11.26
2022-11-07T09:00:46.621Z,11.27
2022-11-07T09:06:01.087Z,11.36
2022-11-07T09:08:30.253Z,11.42
2022-11-07T09:11:01.272Z,11.39
2022-11-07T09:13:28.227Z,11.44
2022-11-07T09:16:02.587Z,11.48
2022-11-07T09:18:29.769Z,11.50
2022-11-07T09:20:57.565Z,11.46
2022-11-07T09:23:24.279Z,11.41
2022-11-07T09:25:51.220Z,11.42
2022-11-07T09:28:17.814Z,11.39
2022-11-07T09:30:44.577Z,11.38
2022-11-07T09:33:11.243Z,11.36
2022-11-07T09:35:37.843Z,11.35
2022-11-07T09:38:04.687Z,11.38
2022-11-07T09:40:43.403Z,11.28
2022-11-07T09:43:28.527Z,11.32
2022-11-07T09:46:16.015Z,11.36
2022-11-07T09:48:57.841Z,11.35
2022-11-07T09:51:39.769Z,11.36
2022-11-07T09:54:18.167Z,11.44
2022-11-07T09:56:44.909Z,11.52
2022-11-07T09:59:22.986Z,11.58
2022-11-07T10:01:49.700Z,11.57
2022-11-07T10:04:25.259Z,11.54
2022-11-07T10:07:11.465Z,11.56
2022-11-07T10:09:38.064Z,11.60
2022-11-07T10:12:07.603Z,11.66
2022-11-07T10:15:10.174Z,11.74
2022-11-07T10:17:54.092Z,11.74
2022-11-07T10:20:25.140Z,11.69
2022-11-07T10:22:57.847Z,11.68
2022-11-07T10:25:35.506Z,11.69
2022-11-07T10:28:08.386Z,11.74
2022-11-07T10:30:35.508Z,11.78
2022-11-07T10:33:10.895Z,11.82
2022-11-07T10:35:47.036Z,11.82
2022-11-07T10:38:22.628Z,11.82
2022-11-07T10:40:51.590Z,11.82
2022-11-07T10:43:34.612Z,11.84
2022-11-07T10:46:16.228Z,11.88
2022-11-07T10:49:00.435Z,11.92
2022-11-07T10:51:53.879Z,12.00
2022-11-07T10:54:22.365Z,12.03
2022-11-07T10:56:57.134Z,12.04
2022-11-07T10:59:31.402Z,12.09
2022-11-07T11:02:02.028Z,12.14
2022-11-07T11:04:31.309Z,12.18
2022-11-07T11:07:03.944Z,12.23
2022-11-07T11:09:33.450Z,12.23
2022-11-07T11:12:27.675Z,12.23
2022-11-07T11:15:12.927Z,12.21
2022-11-07T11:17:39.726Z,12.21
2022-11-07T11:20:23.638Z,12.21
2022-11-07T11:22:50.322Z,12.21
2022-11-07T11:25:21.808Z,12.23
2022-11-07T11:27:52.929Z,12.24
2022-11-07T11:30:21.491Z,12.27
2022-11-07T11:33:06.759Z,12.27
2022-11-07T11:35:47.400Z,12.26
2022-11-07T11:38:19.487Z,12.29
2022-11-07T11:40:56.222Z,12.27
2022-11-07T11:43:48.571Z,12.27
2022-11-07T11:46:31.361Z,12.22
2022-11-07T11:49:06.220Z,12.17
2022-11-07T11:51:40.797Z,12.15
2022-11-07T11:54:12.737Z,12.10
2022-11-07T11:56:53.171Z,12.03
2022-11-07T11:59:52.147Z,11.95
2022-11-07T12:02:43.925Z,11.98
2022-11-07T12:05:26.823Z,11.94
2022-11-07T12:08:11.703Z,11.98
2022-11-07T12:10:50.775Z,11.99
2022-11-07T12:14:01.691Z,12.00
2022-11-07T12:16:50.039Z,11.98
2022-11-07T12:19:34.638Z,11.94
2022-11-07T12:22:03.834Z,11.93
2022-11-07T12:24:37.240Z,11.88
2022-11-07T12:27:06.867Z,11.90
2022-11-07T12:30:02.467Z,11.79
2022-11-07T12:32:43.168Z,11.79
2022-11-07T12:35:31.444Z,11.73
2022-11-07T12:38:01.048Z,11.69
2022-11-07T12:40:31.988Z,11.69
2022-11-07T12:43:20.198Z,11.75
2022-11-07T12:45:54.626Z,11.67
2022-11-07T12:48:39.599Z,11.54
2022-11-07T12:51:09.512Z,11.55
2022-11-07T12:53:51.440Z,11.58
2022-11-07T12:56:23.381Z,11.58
2022-11-07T12:58:50.516Z,11.57
2022-11-07T13:01:23.962Z,11.58
2022-11-07T13:04:11.082Z,11.60
2022-11-07T13:06:57.532Z,11.60
2022-11-07T13:09:55.207Z,11.60
2022-11-07T13:12:40.403Z,11.58
2022-11-07T13:15:11.192Z,11.57
2022-11-07T13:17:41.223Z,11.52
2022-11-07T13:20:29.246Z,11.55
2022-11-07T13:23:01.034Z,11.61
2022-11-07T13:25:32.769Z,11.61
2022-11-07T13:28:01.295Z,11.59
2022-11-07T13:30:30.604Z,11.61
2022-11-07T13:33:03.279Z,11.59
2022-11-07T13:35:31.349Z,11.58
2022-11-07T13:38:08.487Z,11.57
2022-11-07T13:40:44.482Z,11.57
2022-11-07T13:43:18.754Z,11.58
2022-11-07T13:45:45.458Z,11.55
2022-11-07T13:48:33.580Z,11.53
2022-11-07T13:51:15.568Z,11.44
2022-11-07T13:53:53.314Z,11.37
2022-11-07T13:56:49.667Z,11.25
2022-11-07T13:59:38.458Z,11.20
2022-11-07T14:02:05.750Z,11.16
2022-11-07T14:04:40.510Z,11.12
2022-11-07T14:07:16.648Z,11.13
2022-11-07T14:09:44.286Z,11.14
2022-11-07T14:12:22.367Z,11.13
2022-11-07T14:14:50.933Z,11.14
2022-11-07T14:17:19.812Z,11.12
2022-11-07T14:19:46.452Z,11.10
2022-11-07T14:22:22.687Z,11.04
2022-11-07T14:24:55.528Z,11.01
2022-11-07T14:27:23.630Z,10.94
2022-11-07T14:29:57.687Z,10.97
2022-11-07T14:32:28.122Z,10.93
2022-11-07T14:35:00.052Z,10.85
2022-11-07T14:37:26.774Z,10.77
2022-11-07T14:39:53.450Z,10.75
2022-11-07T14:42:23.735Z,10.70
2022-11-07T14:44:57.673Z,10.72
2022-11-07T14:47:30.454Z,10.65
2022-11-07T14:49:57.851Z,10.59
2022-11-07T14:52:36.396Z,10.59
2022-11-07T14:55:06.394Z,10.51
2022-11-07T14:57:35.791Z,10.50
2022-11-07T15:00:06.612Z,10.41
2022-11-07T15:02:33.936Z,10.40
2022-11-07T15:05:09.597Z,10.40
2022-11-07T15:07:47.644Z,10.38
2022-11-07T15:10:24.741Z,10.40
2022-11-07T15:12:58.401Z,10.37
2022-11-07T15:15:37.086Z,10.38
2022-11-07T15:18:06.598Z,10.41
2022-11-07T15:20:37.797Z,10.41
2022-11-07T15:23:13.594Z,10.37
2022-11-07T15:25:44.618Z,10.39
2022-11-07T15:28:43.860Z,10.36
2022-11-07T15:31:29.000Z,10.33
2022-11-07T15:33:57.965Z,10.31
2022-11-07T15:36:25.148Z,10.31
2022-11-07T15:38:52.653Z,10.33
2022-11-07T15:41:19.773Z,10.35
2022-11-07T15:43:46.395Z,10.34
2022-11-07T15:46:39.298Z,10.35
2022-11-07T15:49:07.362Z,10.30
2022-11-07T15:51:33.995Z,10.29
2022-11-07T15:54:00.590Z,10.31
2022-11-07T15:56:27.325Z,10.31
2022-11-07T15:58:55.331Z,10.35
2022-11-07T16:01:22.930Z,10.34
2022-11-07T16:03:49.686Z,10.30
2022-11-07T16:06:25.221Z,10.31
2022-11-07T16:08:52.008Z,10.26
2022-11-07T16:11:18.678Z,10.29
2022-11-07T16:13:45.545Z,10.30
2022-11-07T16:16:21.982Z,10.31
2022-11-07T16:18:51.074Z,10.29
2022-11-07T16:21:20.455Z,10.30
2022-11-07T16:23:49.696Z,10.30
2022-11-07T16:26:27.865Z,10.26
2022-11-07T16:28:54.683Z,10.21
2022-11-07T16:31:21.296Z,10.21
2022-11-07T16:33:48.020Z,10.23
2022-11-07T16:36:31.746Z,10.26
2022-11-07T16:38:58.684Z,10.23
2022-11-07T16:41:25.292Z,10.24
2022-11-07T16:43:52.017Z,10.22
2022-11-07T16:46:21.400Z,10.24
2022-11-07T16:48:50.722Z,10.25
2022-11-07T16:51:21.506Z,10.25
2022-11-07T16:53:48.866Z,10.24
2022-11-07T16:56:32.254Z,10.23
2022-11-07T16:58:59.301Z,10.29
2022-11-07T17:01:27.137Z,10.25
2022-11-07T17:03:54.789Z,10.26
2022-11-07T17:06:33.253Z,10.28
2022-11-07T17:09:08.996Z,10.28
2022-11-07T17:11:38.813Z,10.29
2022-11-07T17:14:05.552Z,10.28
2022-11-07T17:16:35.666Z,10.30
2022-11-07T17:19:03.866Z,10.31
2022-11-07T17:21:36.898Z,10.29
2022-11-07T17:24:04.155Z,10.23
2022-11-07T17:26:34.718Z,10.24
2022-11-07T17:29:02.916Z,10.23
2022-11-07T17:31:29.544Z,10.20
2022-11-07T17:33:57.108Z,10.21
2022-11-07T17:36:36.733Z,10.25
2022-11-07T17:39:11.842Z,10.24
2022-11-07T17:41:40.802Z,10.26
2022-11-07T17:44:07.649Z,10.25
2022-11-07T17:46:35.854Z,10.22
2022-11-07T17:49:07.042Z,10.25
2022-11-07T17:51:35.983Z,10.29
2022-11-07T17:54:02.772Z,10.24
2022-11-07T17:56:30.952Z,10.26
2022-11-07T17:59:18.576Z,10.30
2022-11-07T18:01:46.089Z,10.28
2022-11-07T18:04:13.610Z,10.29
2022-11-07T18:06:42.798Z,10.30
2022-11-07T18:09:15.470Z,10.31
2022-11-07T18:11:42.620Z,10.29
2022-11-07T18:14:11.159Z,10.26
2022-11-07T18:16:37.835Z,10.28
2022-11-07T18:19:05.913Z,10.29
2022-11-07T18:21:32.660Z,10.26
2022-11-07T18:23:59.275Z,10.24
2022-11-07T18:26:31.354Z,10.24
2022-11-07T18:29:12.774Z,10.26
2022-11-07T18:31:41.347Z,10.21
2022-11-07T18:34:11.319Z,10.22
2022-11-07T18:36:40.208Z,10.18
2022-11-07T18:39:19.190Z,10.19
2022-11-07T18:41:45.834Z,10.19
2022-11-07T18:44:12.574Z,10.20
2022-11-07T18:46:39.355Z,10.18
2022-11-07T18:49:06.557Z,10.15
2022-11-07T18:51:35.971Z,10.19
2022-11-07T18:54:04.670Z,10.18
2022-11-07T18:56:31.613Z,10.18
2022-11-07T18:58:58.643Z,10.19
2022-11-07T19:01:28.755Z,10.19
2022-11-07T19:03:57.050Z,10.17
2022-11-07T19:06:25.529Z,10.14
2022-11-07T19:08:52.612Z,10.16
2022-11-07T19:11:26.600Z,10.19
2022-11-07T19:13:53.636Z,10.12
2022-11-07T19:16:24.412Z,10.07
2022-11-07T19:18:51.684Z,10.08
2022-11-07T19:21:21.002Z,10.05
2022-11-07T19:23:48.642Z,10.06
2022-11-07T19:26:15.799Z,10.03
2022-11-07T19:28:42.891Z,10.04
2022-11-07T19:31:12.962Z,10.06
2022-11-07T19:33:41.177Z,9.98
2022-11-07T19:36:16.584Z,9.92
2022-11-07T19:38:44.373Z,9.92
2022-11-07T19:41:15.919Z,10.00
2022-11-07T19:43:44.697Z,9.98
2022-11-07T19:46:15.224Z,9.99
2022-11-07T19:48:42.897Z,9.95
2022-11-07T19:51:19.908Z,9.96
2022-11-07T19:53:54.864Z,9.95
2022-11-07T19:56:22.044Z,9.92
2022-11-07T19:58:48.746Z,9.89
2022-11-07T20:01:18.980Z,9.93
2022-11-07T20:03:47.781Z,9.96
2022-11-07T20:06:17.254Z,9.98
2022-11-07T20:08:46.366Z,10.02
2022-11-07T20:11:16.272Z,10.00
2022-11-07T20:13:43.625Z,9.96
2022-11-07T20:16:10.952Z,9.93
2022-11-07T20:18:39.146Z,9.94
2022-11-07T20:21:13.174Z,9.94
2022-11-07T20:23:41.246Z,9.95
2022-11-07T20:26:13.493Z,9.92
2022-11-07T20:28:40.266Z,9.88
2022-11-07T20:31:12.137Z,9.94
2022-11-07T20:33:38.666Z,9.95
2022-11-07T20:36:08.654Z,9.98
2022-11-07T20:38:36.185Z,9.97
2022-11-07T20:41:08.049Z,9.96
2022-11-07T20:43:34.582Z,10.01
2022-11-07T20:46:06.962Z,9.95
2022-11-07T20:48:34.120Z,9.92
2022-11-07T20:51:14.063Z,9.95
2022-11-07T20:53:46.836Z,9.92
2022-11-07T20:56:16.399Z,9.88
2022-11-07T20:58:43.508Z,9.86
2022-11-07T21:01:38.072Z,9.86
2022-11-07T21:04:11.340Z,9.87
2022-11-07T21:06:38.130Z,9.87
2022-11-07T21:09:06.341Z,9.84
2022-11-07T21:11:33.639Z,9.84
2022-11-07T21:14:00.739Z,9.87
2022-11-07T21:16:28.221Z,9.78
2022-11-07T21:18:56.091Z,9.79
2022-11-07T21:21:27.067Z,9.81
2022-11-07T21:23:54.747Z,9.78
2022-11-07T21:26:24.711Z,9.79
2022-11-07T21:28:51.631Z,9.77
2022-11-07T21:31:25.010Z,9.82
2022-11-07T21:33:52.691Z,9.84
2022-11-07T21:36:21.931Z,9.86
2022-11-07T21:38:48.585Z,9.77
2022-11-07T21:41:16.228Z,9.90
2022-11-07T21:43:43.009Z,9.90
2022-11-07T21:46:18.966Z,9.93
2022-11-07T21:48:46.814Z,9.92
2022-11-07T21:51:16.725Z,9.87
2022-11-07T21:53:43.879Z,9.87
2022-11-07T21:56:22.759Z,9.87
2022-11-07T21:58:56.011Z,9.90
2022-11-07T22:01:23.445Z,9.83
2022-11-07T22:04:06.160Z,9.73
2022-11-07T22:06:35.984Z,9.73
2022-11-07T22:09:04.222Z,9.70
2022-11-07T22:11:30.867Z,9.69
2022-11-07T22:13:57.560Z,9.68
2022-11-07T22:16:24.688Z,9.66
2022-11-07T22:18:51.493Z,9.68
2022-11-07T22:21:21.281Z,9.67
2022-11-07T22:23:48.617Z,9.70
2022-11-07T22:26:18.909Z,9.71
2022-11-07T22:28:46.515Z,9.73
2022-11-07T22:31:19.352Z,9.72
2022-11-07T22:33:46.275Z,9.75
2022-11-07T22:36:13.467Z,9.72
2022-11-07T22:38:42.682Z,9.73
2022-11-07T22:41:12.816Z,9.75
2022-11-07T22:43:39.736Z,9.74
2022-11-07T22:46:14.268Z,9.77
2022-11-07T22:48:41.814Z,9.77
2022-11-07T22:51:14.029Z,9.80
2022-11-07T22:53:41.381Z,9.77
2022-11-07T22:56:12.318Z,9.76
2022-11-07T22:58:39.939Z,9.79
2022-11-07T23:01:13.412Z,9.78
2022-11-07T23:03:40.001Z,9.75
2022-11-07T23:06:06.728Z,9.76
2022-11-07T23:08:34.414Z,9.75
2022-11-07T23:13:51.330Z,9.74
2022-11-07T23:16:33.125Z,9.77
2022-11-07T23:19:01.708Z,9.73
2022-11-07T23:21:29.045Z,9.74
2022-11-07T23:23:57.634Z,9.73
2022-11-07T23:26:25.429Z,9.75
2022-11-07T23:28:52.226Z,9.73
2022-11-07T23:31:20.108Z,9.73
2022-11-07T23:33:48.294Z,9.71
2022-11-07T23:36:17.775Z,9.71
2022-11-07T23:38:46.066Z,9.73
2022-11-07T23:41:15.365Z,9.69
2022-11-07T23:43:42.993Z,9.71
2022-11-07T23:46:34.568Z,9.73
2022-11-07T23:49:22.129Z,9.73
2022-11-07T23:51:49.880Z,9.71
2022-11-07T23:54:35.302Z,9.67
2022-11-07T23:57:03.120Z,9.66
2022-11-07T23:59:50.105Z,9.68
